createdAt,value
2017-08-28T00:00:30.468Z,6.23
2017-08-28T00:02:58.602Z,7.80
2017-08-28T00:05:26.880Z,7.00
2017-08-28T00:07:55.017Z,7.10
2017-08-28T00:10:23.176Z,8.27
2017-08-28T00:12:51.352Z,6.43
2017-08-28T00:15:19.503Z,10.00
2017-08-28T00:17:47.650Z,6.83
2017-08-28T00:20:15.817Z,6.33
2017-08-28T00:22:43.950Z,7.37
2017-08-28T00:25:12.113Z,6.40
2017-08-28T00:27:40.249Z,5.57
2017-08-28T00:30:08.383Z,6.33
2017-08-28T00:32:36.563Z,7.80
2017-08-28T00:35:04.689Z,6.57
2017-08-28T00:37:32.835Z,6.30
2017-08-28T00:40:01.114Z,6.40
2017-08-28T00:42:29.258Z,6.00
2017-08-28T00:44:57.411Z,6.80
2017-08-28T00:47:25.592Z,6.00
2017-08-28T00:49:53.747Z,4.90
2017-08-28T00:52:21.913Z,6.70
2017-08-28T00:54:50.048Z,6.77
2017-08-28T00:57:18.201Z,5.77
2017-08-28T00:59:46.319Z,6.93
2017-08-28T01:02:14.577Z,6.60
2017-08-28T01:04:42.714Z,6.80
2017-08-28T01:07:10.845Z,5.63
2017-08-28T01:09:39.015Z,5.67
2017-08-28T01:12:07.137Z,6.63
2017-08-28T01:14:35.297Z,6.07
2017-08-28T01:17:03.425Z,7.13
2017-08-28T01:19:31.591Z,6.73
2017-08-28T01:21:59.728Z,6.20
2017-08-28T01:24:27.989Z,5.70
2017-08-28T01:26:56.142Z,6.03
2017-08-28T01:29:24.283Z,5.57
2017-08-28T01:31:52.450Z,6.03
2017-08-28T01:34:20.573Z,7.30
2017-08-28T01:36:48.711Z,6.10
2017-08-28T01:39:16.875Z,6.50
2017-08-28T01:41:45.012Z,7.40
2017-08-28T01:44:13.165Z,6.07
2017-08-28T01:46:41.288Z,6.73
2017-08-28T01:49:09.440Z,6.57
2017-08-28T01:51:37.583Z,6.53
2017-08-28T01:54:05.747Z,6.30
2017-08-28T01:56:33.882Z,5.97
2017-08-28T01:59:02.036Z,5.83
2017-08-28T02:01:30.217Z,6.80
2017-08-28T02:03:58.362Z,6.13
2017-08-28T02:06:26.522Z,7.67
2017-08-28T02:08:54.671Z,6.83
2017-08-28T02:11:22.837Z,6.50
2017-08-28T02:13:50.978Z,7.17
2017-08-28T02:16:19.105Z,5.80
2017-08-28T02:18:47.267Z,7.23
2017-08-28T02:21:15.407Z,5.93
2017-08-28T02:23:43.616Z,7.00
2017-08-28T02:26:11.751Z,5.97
2017-08-28T02:28:39.890Z,7.67
2017-08-28T02:31:08.055Z,7.70
2017-08-28T02:33:36.189Z,10.50
2017-08-28T02:36:04.352Z,7.50
2017-08-28T02:38:32.484Z,6.63
2017-08-28T02:41:00.618Z,7.80
2017-08-28T02:43:28.784Z,6.20
2017-08-28T02:45:56.909Z,6.03
2017-08-28T02:48:25.043Z,6.20
2017-08-28T02:50:53.199Z,6.00
2017-08-28T02:53:21.329Z,5.77
2017-08-28T02:55:49.495Z,6.00
2017-08-28T02:58:17.626Z,5.70
2017-08-28T03:00:45.767Z,5.53
2017-08-28T03:03:13.935Z,5.33
2017-08-28T03:05:42.061Z,6.50
2017-08-28T03:08:10.199Z,6.40
2017-08-28T03:10:38.376Z,6.67
2017-08-28T03:13:06.520Z,5.90
2017-08-28T03:15:34.657Z,6.10
2017-08-28T03:18:02.822Z,7.13
2017-08-28T03:20:30.949Z,7.17
2017-08-28T03:22:59.109Z,6.27
2017-08-28T03:25:27.250Z,4.70
2017-08-28T03:27:55.433Z,6.37
2017-08-28T03:30:23.562Z,5.97
2017-08-28T03:32:51.715Z,5.90
2017-08-28T03:35:19.906Z,6.53
2017-08-28T03:37:48.107Z,6.53
2017-08-28T03:40:16.268Z,6.77
2017-08-28T03:42:44.439Z,7.40
2017-08-28T03:45:12.568Z,5.83
2017-08-28T03:47:40.727Z,6.80
2017-08-28T03:50:08.857Z,6.30
2017-08-28T03:52:37.139Z,6.83
2017-08-28T03:55:05.266Z,6.70
2017-08-28T03:57:33.414Z,6.07
2017-08-28T04:00:01.587Z,5.30
2017-08-28T04:02:29.746Z,6.50
2017-08-28T04:04:57.900Z,6.80
2017-08-28T04:07:26.037Z,6.73
2017-08-28T04:09:54.178Z,5.80
2017-08-28T04:12:22.360Z,6.97
2017-08-28T04:14:50.509Z,6.07
2017-08-28T04:17:18.675Z,5.13
2017-08-28T04:19:46.835Z,7.70
2017-08-28T04:22:15.031Z,6.00
2017-08-28T04:24:43.158Z,7.03
2017-08-28T04:27:11.287Z,6.23
2017-08-28T04:29:39.461Z,6.03
2017-08-28T04:32:07.586Z,4.70
2017-08-28T04:34:35.741Z,5.87
2017-08-28T04:37:03.864Z,6.30
2017-08-28T04:39:32.125Z,5.67
2017-08-28T04:42:00.418Z,6.50
2017-08-28T04:44:28.568Z,7.30
2017-08-28T04:46:56.702Z,9.20
2017-08-28T04:49:24.874Z,6.00
2017-08-28T04:51:53.018Z,5.80
2017-08-28T04:54:21.179Z,6.43
2017-08-28T04:56:49.328Z,5.70
2017-08-28T04:59:17.478Z,7.93
2017-08-28T05:01:45.741Z,5.10
2017-08-28T05:04:13.887Z,5.27
2017-08-28T05:06:42.018Z,6.03
2017-08-28T05:09:10.191Z,5.87
2017-08-28T05:11:38.315Z,5.93
2017-08-28T05:14:06.472Z,6.30
2017-08-28T05:16:34.643Z,5.90
2017-08-28T05:19:02.768Z,6.47
2017-08-28T05:21:30.967Z,6.20
2017-08-28T05:23:59.099Z,5.60
2017-08-28T05:26:27.263Z,5.70
2017-08-28T05:28:55.396Z,4.73
2017-08-28T05:31:23.580Z,4.77
2017-08-28T05:33:51.853Z,6.53
2017-08-28T05:36:19.985Z,7.23
2017-08-28T05:38:48.150Z,6.50
2017-08-28T05:41:16.273Z,5.67
2017-08-28T05:43:44.438Z,6.77
2017-08-28T05:46:12.574Z,7.30
2017-08-28T05:48:40.740Z,5.30
2017-08-28T05:51:08.880Z,6.03
2017-08-28T05:53:37.009Z,5.33
2017-08-28T05:56:05.183Z,4.70
2017-08-28T05:58:33.334Z,5.43
2017-08-28T06:01:01.475Z,6.10
2017-08-28T06:03:29.638Z,5.73
2017-08-28T06:05:57.768Z,7.60
2017-08-28T06:08:25.899Z,7.97
2017-08-28T06:10:54.084Z,5.97
2017-08-28T06:13:22.269Z,7.17
2017-08-28T06:15:50.483Z,7.10
2017-08-28T06:18:18.689Z,7.60
2017-08-28T06:20:46.813Z,8.03
2017-08-28T06:23:14.986Z,6.83
2017-08-28T06:25:43.128Z,6.30
2017-08-28T06:28:11.306Z,6.47
2017-08-28T06:30:39.433Z,5.90
2017-08-28T06:33:07.565Z,7.73
2017-08-28T06:35:35.735Z,7.50
2017-08-28T06:38:03.887Z,6.43
2017-08-28T06:40:32.063Z,7.13
2017-08-28T06:43:00.213Z,7.27
2017-08-28T06:45:28.382Z,7.40
2017-08-28T06:47:56.505Z,8.37
2017-08-28T06:50:24.679Z,7.70
2017-08-28T06:52:52.824Z,7.53
2017-08-28T06:55:20.986Z,8.27
2017-08-28T06:57:49.114Z,7.10
2017-08-28T07:00:17.273Z,10.40
2017-08-28T07:02:45.407Z,7.37
2017-08-28T07:05:13.565Z,7.93
2017-08-28T07:07:41.723Z,10.37
2017-08-28T07:10:09.896Z,7.60
2017-08-28T07:12:38.018Z,7.70
2017-08-28T07:15:06.187Z,10.60
2017-08-28T07:17:34.319Z,11.17
2017-08-28T07:20:02.495Z,7.93
2017-08-28T07:22:30.637Z,9.40
2017-08-28T07:24:58.801Z,9.90
2017-08-28T07:27:26.946Z,12.13
2017-08-28T07:29:55.116Z,10.50
2017-08-28T07:32:23.260Z,12.33
2017-08-28T07:34:51.425Z,9.90
2017-08-28T07:37:19.570Z,10.70
2017-08-28T07:39:47.740Z,10.63
2017-08-28T07:42:15.887Z,9.77
2017-08-28T07:44:44.045Z,8.50
2017-08-28T07:47:12.190Z,10.53
2017-08-28T07:49:40.356Z,10.73
2017-08-28T07:52:08.494Z,8.27
2017-08-28T07:54:36.762Z,9.57
2017-08-28T07:57:04.897Z,6.60
2017-08-28T07:59:33.048Z,11.20
2017-08-28T08:02:01.220Z,9.60
2017-08-28T08:04:29.356Z,8.43
2017-08-28T08:06:57.522Z,7.93
2017-08-28T08:09:25.654Z,9.27
2017-08-28T08:11:53.913Z,7.43
2017-08-28T08:14:22.076Z,10.57
2017-08-28T08:16:50.245Z,6.47
2017-08-28T08:19:18.382Z,6.73
2017-08-28T08:21:46.570Z,6.13
2017-08-28T08:24:14.705Z,10.30
2017-08-28T08:26:42.864Z,5.90
2017-08-28T08:29:11.003Z,6.70
2017-08-28T08:31:39.250Z,6.07
2017-08-28T08:34:12.943Z,4.80
2017-08-28T08:36:41.132Z,6.63
2017-08-28T08:39:09.260Z,4.50
2017-08-28T08:41:37.441Z,4.93
2017-08-28T08:44:05.587Z,7.00
2017-08-28T08:46:33.745Z,6.63
2017-08-28T08:49:01.910Z,5.47
2017-08-28T08:51:30.070Z,5.43
2017-08-28T08:53:58.217Z,5.20
2017-08-28T08:56:26.384Z,5.73
2017-08-28T08:58:54.529Z,6.33
2017-08-28T09:01:22.760Z,7.20
2017-08-28T09:03:50.894Z,6.03
2017-08-28T09:06:19.068Z,7.17
2017-08-28T09:08:47.207Z,8.03
2017-08-28T09:11:15.370Z,9.23
2017-08-28T09:13:43.505Z,7.93
2017-08-28T09:16:11.672Z,9.60
2017-08-28T09:18:39.812Z,11.70
2017-08-28T09:21:07.963Z,13.53
2017-08-28T09:23:36.118Z,11.07
2017-08-28T09:26:04.271Z,19.37
2017-08-28T09:28:32.434Z,14.83
2017-08-28T09:31:00.552Z,19.20
2017-08-28T09:33:29.674Z,22.10
2017-08-28T09:35:57.815Z,18.47
2017-08-28T09:38:25.986Z,9.10
2017-08-28T09:40:54.118Z,11.27
2017-08-28T09:43:22.311Z,14.80
2017-08-28T09:45:50.451Z,16.23
2017-08-28T09:48:18.619Z,16.10
2017-08-28T09:50:46.751Z,10.47
2017-08-28T09:53:14.931Z,12.10
2017-08-28T09:55:43.064Z,19.07
2017-08-28T09:58:11.235Z,12.50
2017-08-28T10:00:39.373Z,18.60
2017-08-28T10:03:07.549Z,16.50
2017-08-28T10:05:35.702Z,10.53
2017-08-28T10:08:03.870Z,13.17
2017-08-28T10:10:32.004Z,16.07
2017-08-28T10:13:00.164Z,26.73
2017-08-28T10:15:28.289Z,28.30
2017-08-28T10:17:56.448Z,25.13
2017-08-28T10:20:24.593Z,22.50
2017-08-28T10:22:52.759Z,15.47
2017-08-28T10:25:20.901Z,13.90
2017-08-28T10:27:49.071Z,15.30
2017-08-28T10:30:17.210Z,16.50
2017-08-28T10:32:45.371Z,29.50
2017-08-28T10:35:13.510Z,23.00
2017-08-28T10:37:41.670Z,26.50
2017-08-28T10:40:09.817Z,31.50
2017-08-28T10:42:38.016Z,23.90
2017-08-28T10:45:06.171Z,29.37
2017-08-28T10:47:34.351Z,27.07
2017-08-28T10:50:02.531Z,20.17
2017-08-28T10:52:30.684Z,15.97
2017-08-28T10:54:58.845Z,22.60
2017-08-28T10:57:26.979Z,16.10
2017-08-28T10:59:55.158Z,24.80
2017-08-28T11:02:23.294Z,22.63
2017-08-28T11:04:51.476Z,16.13
2017-08-28T11:07:19.607Z,16.23
2017-08-28T11:09:47.768Z,19.93
2017-08-28T11:12:15.922Z,18.60
2017-08-28T11:14:44.108Z,15.73
2017-08-28T11:17:12.237Z,16.10
2017-08-28T11:19:40.386Z,16.70
2017-08-28T11:22:08.551Z,13.33
2017-08-28T11:24:36.695Z,19.77
2017-08-28T11:27:05.737Z,12.47
2017-08-28T11:29:33.880Z,16.10
2017-08-28T11:32:02.036Z,17.17
2017-08-28T11:34:30.210Z,12.50
2017-08-28T11:36:58.358Z,14.67
2017-08-28T11:39:26.522Z,10.07
2017-08-28T11:41:54.808Z,15.97
2017-08-28T11:44:22.973Z,12.27
2017-08-28T11:46:51.106Z,14.10
2017-08-28T11:49:19.262Z,9.90
2017-08-28T11:51:47.405Z,13.40
2017-08-28T11:54:15.525Z,9.50
2017-08-28T11:56:43.685Z,12.50
2017-08-28T11:59:11.827Z,11.20
2017-08-28T12:01:39.962Z,10.60
2017-08-28T12:04:08.134Z,8.03
2017-08-28T12:06:36.265Z,11.90
2017-08-28T12:09:04.405Z,8.20
2017-08-28T12:11:32.557Z,7.50
2017-08-28T12:14:00.679Z,7.20
2017-08-28T12:16:28.837Z,7.80
2017-08-28T12:18:56.986Z,11.87
2017-08-28T12:21:25.162Z,8.40
2017-08-28T12:23:53.286Z,7.87
2017-08-28T12:26:21.429Z,8.03
2017-08-28T12:28:49.610Z,12.83
2017-08-28T12:31:17.734Z,7.60
2017-08-28T12:33:46.011Z,9.60
2017-08-28T12:36:14.146Z,7.30
2017-08-28T12:38:42.299Z,11.40
2017-08-28T12:41:10.473Z,11.03
2017-08-28T12:43:38.602Z,8.30
2017-08-28T12:46:06.777Z,6.93
2017-08-28T12:48:34.917Z,9.73
2017-08-28T12:51:03.087Z,10.30
2017-08-28T12:53:31.236Z,10.97
2017-08-28T12:55:59.375Z,7.77
2017-08-28T12:58:27.543Z,7.87
2017-08-28T13:00:55.669Z,6.90
2017-08-28T13:03:23.835Z,7.40
2017-08-28T13:05:51.964Z,6.60
2017-08-28T13:08:20.217Z,7.50
2017-08-28T13:10:48.359Z,6.37
2017-08-28T13:13:16.486Z,7.23
2017-08-28T13:15:44.654Z,8.20
2017-08-28T13:18:12.787Z,6.53
2017-08-28T13:20:40.985Z,8.77
2017-08-28T13:23:09.136Z,8.57
2017-08-28T13:25:37.270Z,7.60
2017-08-28T13:28:05.456Z,7.87
2017-08-28T13:30:33.599Z,7.17
2017-08-28T13:33:01.764Z,8.37
2017-08-28T13:35:29.926Z,6.47
2017-08-28T13:37:58.062Z,10.37
2017-08-28T13:40:26.200Z,7.70
2017-08-28T13:42:54.374Z,10.23
2017-08-28T13:45:22.533Z,9.50
2017-08-28T13:47:50.707Z,9.80
2017-08-28T13:50:18.842Z,6.23
2017-08-28T13:52:47.005Z,9.47
2017-08-28T13:55:15.147Z,11.47
2017-08-28T13:57:43.312Z,9.70
2017-08-28T14:00:11.460Z,11.60
2017-08-28T14:02:39.616Z,10.97
2017-08-28T14:05:07.748Z,10.33
2017-08-28T14:07:35.921Z,11.60
2017-08-28T14:10:04.059Z,6.33
2017-08-28T14:12:32.239Z,10.70
2017-08-28T14:15:00.379Z,10.53
2017-08-28T14:17:28.544Z,10.40
2017-08-28T14:19:56.673Z,5.70
2017-08-28T14:22:24.909Z,7.10
2017-08-28T14:24:53.033Z,9.77
2017-08-28T14:27:21.194Z,7.57
2017-08-28T14:29:49.332Z,12.77
2017-08-28T14:32:17.796Z,9.40
2017-08-28T14:34:45.939Z,8.30
2017-08-28T14:37:14.143Z,8.07
2017-08-28T14:39:42.270Z,6.80
2017-08-28T14:42:10.437Z,12.00
2017-08-28T14:44:38.579Z,8.10
2017-08-28T14:47:06.733Z,9.10
2017-08-28T14:49:34.870Z,7.47
2017-08-28T14:52:03.033Z,7.07
2017-08-28T14:54:31.167Z,7.67
2017-08-28T14:56:59.346Z,10.67
2017-08-28T14:59:27.478Z,9.13
2017-08-28T15:01:55.629Z,7.87
2017-08-28T15:04:23.765Z,11.93
2017-08-28T15:06:51.901Z,9.17
2017-08-28T15:09:20.075Z,7.30
2017-08-28T15:11:48.207Z,7.37
2017-08-28T15:14:16.371Z,7.83
2017-08-28T15:16:44.524Z,12.40
2017-08-28T15:19:12.704Z,10.80
2017-08-28T15:21:40.852Z,9.37
2017-08-28T15:24:09.053Z,11.13
2017-08-28T15:26:37.188Z,10.30
2017-08-28T15:29:05.360Z,9.57
2017-08-28T15:31:33.541Z,11.33
2017-08-28T15:34:01.703Z,8.80
2017-08-28T15:36:29.843Z,10.50
2017-08-28T15:38:58.005Z,11.73
2017-08-28T15:41:26.147Z,11.23
2017-08-28T15:43:54.320Z,9.97
2017-08-28T15:46:22.460Z,11.57
2017-08-28T15:48:50.629Z,12.77
2017-08-28T15:51:18.761Z,10.17
2017-08-28T15:53:46.921Z,14.50
2017-08-28T15:56:15.059Z,9.83
2017-08-28T15:58:43.221Z,11.80
2017-08-28T16:01:11.349Z,9.37
2017-08-28T16:03:39.509Z,14.80
2017-08-28T16:06:07.667Z,9.93
2017-08-28T16:08:35.897Z,13.23
2017-08-28T16:11:04.041Z,13.17
2017-08-28T16:13:32.214Z,10.13
2017-08-28T16:16:00.359Z,10.97
2017-08-28T16:18:28.529Z,12.83
2017-08-28T16:20:56.680Z,14.97
2017-08-28T16:23:24.854Z,7.97
2017-08-28T16:25:52.999Z,10.87
2017-08-28T16:28:21.183Z,10.43
2017-08-28T16:30:49.322Z,13.07
2017-08-28T16:33:17.600Z,14.13
2017-08-28T16:35:45.730Z,9.20
2017-08-28T16:38:13.871Z,11.23
2017-08-28T16:40:42.037Z,10.53
2017-08-28T16:43:10.169Z,13.17
2017-08-28T16:45:38.371Z,9.17
2017-08-28T16:48:06.501Z,12.50
2017-08-28T16:50:34.679Z,10.27
2017-08-28T16:53:02.810Z,9.50
2017-08-28T16:55:30.980Z,13.13
2017-08-28T16:57:59.101Z,8.80
2017-08-28T17:00:27.278Z,9.40
2017-08-28T17:02:55.414Z,5.90
2017-08-28T17:05:23.583Z,6.67
2017-08-28T17:07:51.718Z,9.70
2017-08-28T17:10:19.886Z,7.57
2017-08-28T17:12:48.013Z,9.70
2017-08-28T17:15:16.183Z,10.57
2017-08-28T17:17:44.329Z,10.83
2017-08-28T17:20:12.487Z,9.60
2017-08-28T17:22:46.470Z,8.97
2017-08-28T17:25:14.633Z,9.30
2017-08-28T17:27:42.777Z,9.20
2017-08-28T17:30:11.211Z,9.30
2017-08-28T17:32:39.345Z,7.40
2017-08-28T17:35:07.512Z,8.70
2017-08-28T17:37:35.646Z,8.17
2017-08-28T17:40:03.814Z,8.20
2017-08-28T17:42:31.947Z,8.77
2017-08-28T17:45:00.130Z,11.80
2017-08-28T17:47:28.260Z,10.37
2017-08-28T17:49:56.431Z,8.33
2017-08-28T17:52:24.563Z,8.60
2017-08-28T17:54:52.736Z,10.63
2017-08-28T17:57:20.879Z,8.43
2017-08-28T17:59:49.039Z,8.30
2017-08-28T18:02:17.184Z,8.90
2017-08-28T18:04:45.340Z,9.10
2017-08-28T18:07:13.475Z,7.20
2017-08-28T18:09:41.613Z,10.37
2017-08-28T18:12:09.777Z,10.00
2017-08-28T18:14:37.929Z,10.00
2017-08-28T18:17:06.109Z,9.50
2017-08-28T18:19:34.250Z,10.70
2017-08-28T18:22:02.423Z,10.50
2017-08-28T18:24:30.554Z,9.87
2017-08-28T18:26:58.714Z,10.20
2017-08-28T18:29:26.882Z,9.47
2017-08-28T18:31:55.056Z,9.37
2017-08-28T18:34:23.199Z,10.30
2017-08-28T18:36:51.366Z,9.83
2017-08-28T18:39:19.498Z,9.97
2017-08-28T18:41:47.663Z,9.87
2017-08-28T18:44:15.789Z,9.40
2017-08-28T18:46:43.953Z,11.80
2017-08-28T18:49:12.096Z,11.27
2017-08-28T18:51:40.237Z,10.30
2017-08-28T18:54:08.419Z,11.80
2017-08-28T18:56:36.601Z,12.00
2017-08-28T18:59:04.751Z,11.30
2017-08-28T19:01:32.935Z,11.07
2017-08-28T19:04:01.077Z,12.33
2017-08-28T19:06:29.255Z,12.40
2017-08-28T19:08:57.466Z,12.27
2017-08-28T19:11:25.643Z,12.93
2017-08-28T19:13:53.804Z,12.70
2017-08-28T19:16:21.961Z,12.97
2017-08-28T19:18:50.108Z,14.23
2017-08-28T19:21:18.288Z,13.23
2017-08-28T19:23:46.447Z,13.83
2017-08-28T19:26:14.621Z,13.23
2017-08-28T19:28:42.763Z,14.77
2017-08-28T19:31:10.939Z,16.67
2017-08-28T19:33:43.250Z,14.77
2017-08-28T19:36:11.432Z,13.40
2017-08-28T19:38:39.575Z,14.63
2017-08-28T19:41:07.719Z,13.50
2017-08-28T19:43:35.891Z,17.40
2017-08-28T19:46:04.089Z,12.13
2017-08-28T19:48:32.263Z,16.40
2017-08-28T19:51:00.458Z,15.57
2017-08-28T19:53:28.707Z,16.37
2017-08-28T19:55:56.883Z,16.40
2017-08-28T19:58:25.062Z,15.10
2017-08-28T20:00:53.212Z,13.50
2017-08-28T20:03:21.395Z,14.50
2017-08-28T20:05:49.541Z,16.80
2017-08-28T20:08:17.717Z,14.80
2017-08-28T20:10:45.863Z,16.20
2017-08-28T20:13:14.033Z,11.50
2017-08-28T20:15:42.169Z,12.00
2017-08-28T20:18:10.340Z,15.80
2017-08-28T20:20:38.472Z,15.17
2017-08-28T20:23:06.637Z,16.00
2017-08-28T20:25:34.776Z,15.30
2017-08-28T20:28:02.946Z,13.73
2017-08-28T20:30:31.078Z,14.73
2017-08-28T20:33:00.042Z,15.00
2017-08-28T20:35:28.191Z,17.57
2017-08-28T20:37:56.357Z,15.47
2017-08-28T20:40:24.489Z,18.13
2017-08-28T20:42:54.799Z,15.30
2017-08-28T20:45:22.942Z,15.60
2017-08-28T20:47:51.100Z,15.00
2017-08-28T20:50:19.233Z,14.20
2017-08-28T20:52:47.395Z,16.40
2017-08-28T20:55:15.531Z,15.77
2017-08-28T20:57:43.697Z,15.17
2017-08-28T21:00:11.838Z,13.90
2017-08-28T21:02:40.106Z,13.20
2017-08-28T21:05:08.253Z,13.80
2017-08-28T21:07:36.398Z,14.10
2017-08-28T21:10:04.570Z,11.90
2017-08-28T21:12:32.720Z,13.97
2017-08-28T21:15:00.888Z,13.30
2017-08-28T21:17:29.059Z,15.70
2017-08-28T21:19:57.238Z,14.70
2017-08-28T21:22:25.387Z,14.57
2017-08-28T21:24:53.546Z,15.47
2017-08-28T21:27:21.681Z,15.60
2017-08-28T21:29:49.849Z,12.97
2017-08-28T21:32:17.980Z,15.60
2017-08-28T21:34:46.151Z,15.00
2017-08-28T21:37:14.300Z,14.93
2017-08-28T21:39:42.475Z,12.70
2017-08-28T21:42:10.618Z,20.67
2017-08-28T21:44:38.789Z,13.37
2017-08-28T21:47:06.921Z,17.17
2017-08-28T21:49:35.091Z,15.67
2017-08-28T21:52:03.243Z,13.90
2017-08-28T21:54:31.422Z,15.93
2017-08-28T21:56:59.558Z,15.57
2017-08-28T21:59:27.726Z,12.50
2017-08-28T22:01:55.867Z,11.80
2017-08-28T22:04:24.040Z,13.60
2017-08-28T22:06:52.178Z,17.13
2017-08-28T22:09:20.358Z,12.10
2017-08-28T22:11:48.487Z,12.83
2017-08-28T22:14:16.662Z,14.27
2017-08-28T22:16:44.803Z,10.70
2017-08-28T22:19:12.965Z,14.53
2017-08-28T22:21:41.115Z,15.30
2017-08-28T22:24:09.298Z,12.67
2017-08-28T22:26:37.435Z,10.30
2017-08-28T22:29:05.607Z,15.27
2017-08-28T22:31:33.733Z,14.67
2017-08-28T22:34:02.014Z,13.40
2017-08-28T22:36:30.144Z,9.97
2017-08-28T22:38:58.282Z,10.90
2017-08-28T22:41:26.450Z,14.77
2017-08-28T22:43:54.581Z,12.37
2017-08-28T22:46:22.847Z,15.33
2017-08-28T22:48:50.990Z,13.20
2017-08-28T22:51:19.158Z,13.73
2017-08-28T22:53:47.298Z,15.53
2017-08-28T22:56:15.467Z,13.87
2017-08-28T22:58:43.592Z,15.03
2017-08-28T23:01:11.763Z,14.90
2017-08-28T23:03:39.908Z,13.30
2017-08-28T23:06:08.066Z,13.63
2017-08-28T23:08:36.204Z,13.93
2017-08-28T23:11:04.377Z,13.90
2017-08-28T23:13:32.538Z,15.77
2017-08-28T23:16:00.711Z,18.10
2017-08-28T23:18:28.851Z,14.63
2017-08-28T23:20:57.023Z,16.07
2017-08-28T23:23:25.162Z,14.20
2017-08-28T23:25:53.472Z,11.73
2017-08-28T23:28:21.648Z,13.70
2017-08-28T23:30:49.790Z,13.00
2017-08-28T23:33:17.958Z,14.90
2017-08-28T23:35:46.085Z,16.37
2017-08-28T23:38:14.246Z,11.60
2017-08-28T23:40:42.372Z,11.80
2017-08-28T23:43:10.518Z,12.77
2017-08-28T23:45:38.685Z,12.10
2017-08-28T23:48:06.825Z,12.70
2017-08-28T23:50:35.001Z,10.10
2017-08-28T23:53:03.147Z,14.83
2017-08-28T23:55:31.327Z,13.07
2017-08-28T23:57:59.462Z,12.10
